This is the latest recevied weather packets stored in our database for station/object KQ4HDO. If no packets are shown the sender has not sent any weather packets the latest 10 day(s).
| Time | Temp. | Humidity | Pressure | Rain* | Wind** | Luminosity | Snow |
|---|---|---|---|---|---|---|---|
| 1777064103 | 23.33° C | 57% | 1007 hPa | 0 mm | - | - | - |
| 1777063203 | 23.89° C | 55% | 1007.1 hPa | 0 mm | - | - | - |
| 1777060803 | 23.89° C | 56% | 1007.2 hPa | 0 mm | - | - | - |
| 1777059903 | 24.44° C | 54% | 1007.3 hPa | 0 mm | - | - | - |
| 1777058538 | 23.89° C | 57% | 1007.3 hPa | 0 mm | - | - | - |
| 1777057938 | 23.33° C | 55% | 1007.3 hPa | 0 mm | - | - | - |
| 1777054937 | 23.33° C | 61% | 1007.2 hPa | 0 mm | - | - | - |
| 1777054503 | 22.78° C | 58% | 1007.2 hPa | 0 mm | - | - | - |
| 1777049103 | 20.56° C | 72% | 1007.7 hPa | 0 mm | - | - | - |
| 1777047903 | 20° C | 76% | 1007.4 hPa | 0 mm | - | - | - |
| 1777046103 | 18.33° C | 80% | 1007.3 hPa | 0 mm | - | - | - |
| 1777045803 | 18.33° C | 84% | 1007.3 hPa | 0 mm | - | - | - |
| 1777043403 | 16.67° C | 89% | 1007.3 hPa | 0 mm | - | - | - |
| 1777039503 | 15.56° C | 91% | 1006.5 hPa | 0 mm | - | - | - |
| 1777027803 | 15.56° C | 92% | 1006.1 hPa | 1.27 mm | - | - | - |
| 1777027203 | 15.56° C | 92% | 1005.9 hPa | 0.76 mm | - | - | - |
| 1777026003 | 15.56° C | 91% | 1004.9 hPa | 0.25 mm | - | - | - |
| 1777024037 | 15.56° C | 91% | 1005.4 hPa | 0.25 mm | - | - | - |
| 1777023303 | 15.56° C | 91% | 1005.5 hPa | 0.25 mm | - | - | - |
| 1777022703 | 15.56° C | 91% | 1005.2 hPa | 0.25 mm | - | - | - |
| 1777021803 | 15.56° C | 91% | 1005 hPa | 0.25 mm | - | - | - |
| 1777021503 | 15.56° C | 91% | 1004.9 hPa | 0 mm | - | - | - |
| 1777017437 | 16.11° C | 87% | 1006.5 hPa | 1.27 mm | - | - | - |
| 1777016838 | 16.11° C | 87% | 1006.7 hPa | 1.27 mm | - | - | - |
| 1777014903 | 21.11° C | 66% | 1007.1 hPa | 0 mm | - | - | - |
* Rain latest hour (hover to see other rain measurements)
** Current wind speed in m/s (hover to see current wind gust speed)